createdAt,value
2018-08-09T00:01:50.073Z,19.90
2018-08-09T00:06:53.818Z,19.80
2018-08-09T00:11:57.563Z,19.80
2018-08-09T00:17:01.306Z,19.80
2018-08-09T00:22:05.320Z,19.70
2018-08-09T00:27:09.140Z,19.70
2018-08-09T00:32:12.906Z,19.70
2018-08-09T00:37:16.619Z,19.60
2018-08-09T00:42:20.368Z,19.50
2018-08-09T00:47:24.223Z,19.40
2018-08-09T00:52:27.990Z,19.40
2018-08-09T00:57:31.886Z,19.30
2018-08-09T01:02:35.700Z,19.10
2018-08-09T01:07:39.473Z,19.00
2018-08-09T01:12:43.235Z,19.00
2018-08-09T01:17:47.017Z,19.00
2018-08-09T01:22:50.883Z,18.90
2018-08-09T01:27:54.728Z,18.90
2018-08-09T01:32:58.502Z,18.80
2018-08-09T01:38:02.199Z,18.90
2018-08-09T01:43:17.168Z,18.90
2018-08-09T01:48:20.892Z,19.00
2018-08-09T01:53:24.677Z,18.90
2018-08-09T01:58:28.501Z,18.90
2018-08-09T02:03:32.599Z,18.90
2018-08-09T02:08:36.373Z,18.80
2018-08-09T02:13:40.309Z,18.90
2018-08-09T02:18:44.087Z,18.80
2018-08-09T02:23:47.863Z,18.80
2018-08-09T02:28:51.575Z,18.80
2018-08-09T02:33:55.321Z,18.70
2018-08-09T02:38:59.073Z,18.70
2018-08-09T02:44:02.875Z,18.60
2018-08-09T02:49:06.577Z,18.60
2018-08-09T02:54:10.484Z,18.50
2018-08-09T02:59:14.291Z,18.50
2018-08-09T03:04:18.034Z,18.40
2018-08-09T03:09:21.861Z,18.40
2018-08-09T03:14:25.666Z,18.30
2018-08-09T03:19:29.368Z,18.30
2018-08-09T03:24:33.183Z,18.30
2018-08-09T03:29:36.924Z,18.20
2018-08-09T03:34:40.662Z,18.10
2018-08-09T03:39:44.352Z,18.10
2018-08-09T03:44:48.192Z,18.00
2018-08-09T03:49:51.962Z,18.00
2018-08-09T03:54:55.745Z,18.00
2018-08-09T03:59:59.386Z,17.90
2018-08-09T04:05:03.139Z,17.80
2018-08-09T04:10:07.627Z,17.70
2018-08-09T04:15:12.150Z,17.60
2018-08-09T04:20:15.812Z,17.60
2018-08-09T04:25:19.533Z,17.60
2018-08-09T04:30:23.244Z,17.60
2018-08-09T04:35:26.923Z,17.60
2018-08-09T04:40:30.867Z,17.60
2018-08-09T04:45:34.491Z,17.60
2018-08-09T04:50:38.109Z,17.70
2018-08-09T04:55:41.684Z,17.70
2018-08-09T05:00:45.298Z,17.80
2018-08-09T05:05:48.860Z,17.80
2018-08-09T05:10:52.416Z,17.90
2018-08-09T05:15:56.088Z,18.00
2018-08-09T05:20:59.679Z,18.00
2018-08-09T05:26:03.424Z,18.10
2018-08-09T05:31:07.007Z,18.20
2018-08-09T05:36:10.622Z,18.30
2018-08-09T05:41:14.344Z,18.40
2018-08-09T05:46:17.992Z,18.50
2018-08-09T05:51:21.606Z,18.70
2018-08-09T05:56:25.305Z,18.80
2018-08-09T06:01:28.963Z,19.00
2018-08-09T06:06:32.552Z,19.20
2018-08-09T06:11:36.141Z,19.30
2018-08-09T06:16:40.220Z,19.50
2018-08-09T06:21:43.827Z,19.60
2018-08-09T06:26:47.687Z,19.70
2018-08-09T06:31:51.482Z,19.90
2018-08-09T06:36:55.369Z,20.10
2018-08-09T06:41:59.048Z,20.30
2018-08-09T06:47:02.727Z,20.60
2018-08-09T06:52:07.604Z,20.80
2018-08-09T06:57:11.234Z,21.20
2018-08-09T07:02:14.887Z,21.50
2018-08-09T07:07:19.410Z,21.90
2018-08-09T07:12:23.417Z,22.40
2018-08-09T07:17:27.068Z,22.90
2018-08-09T07:22:30.685Z,23.30
2018-08-09T07:27:34.329Z,23.60
2018-08-09T07:32:38.155Z,23.80
2018-08-09T07:37:41.846Z,23.80
2018-08-09T07:42:45.643Z,23.20
2018-08-09T07:47:49.320Z,22.30
2018-08-09T07:52:53.219Z,22.10
2018-08-09T07:57:56.884Z,22.10
2018-08-09T08:03:00.549Z,21.60
2018-08-09T08:08:04.256Z,21.20
2018-08-09T08:13:08.012Z,20.80
2018-08-09T08:18:11.609Z,20.20
2018-08-09T08:23:15.372Z,19.60
2018-08-09T08:28:18.944Z,19.50
2018-08-09T08:33:22.675Z,19.50
2018-08-09T08:38:26.394Z,19.60
2018-08-09T08:43:30.113Z,20.70
2018-08-09T08:48:33.839Z,21.30
2018-08-09T08:53:37.541Z,21.80
2018-08-09T08:58:55.424Z,22.30
2018-08-09T09:03:59.200Z,22.80
2018-08-09T09:09:03.521Z,23.30
2018-08-09T09:14:07.382Z,23.90
2018-08-09T09:19:11.287Z,24.30
2018-08-09T09:24:15.070Z,24.70
2018-08-09T09:29:18.943Z,25.30
2018-08-09T09:34:22.961Z,25.70
2018-08-09T09:39:26.692Z,26.20
2018-08-09T09:44:30.496Z,26.70
2018-08-09T09:49:34.229Z,27.00
2018-08-09T09:54:38.080Z,27.10
2018-08-09T09:59:41.877Z,27.30
2018-08-09T10:04:45.842Z,27.60
2018-08-09T10:09:49.525Z,28.00
2018-08-09T10:14:53.342Z,28.30
2018-08-09T10:19:57.037Z,28.80
2018-08-09T10:25:00.951Z,29.10
2018-08-09T10:30:05.938Z,29.20
2018-08-09T10:35:09.987Z,29.60
2018-08-09T10:40:13.811Z,29.70
2018-08-09T10:45:17.552Z,30.10
2018-08-09T10:50:21.266Z,30.60
2018-08-09T10:55:25.895Z,30.90
2018-08-09T11:00:29.659Z,30.90
2018-08-09T11:05:33.416Z,31.30
2018-08-09T11:10:37.568Z,32.00
2018-08-09T11:15:41.428Z,32.60
2018-08-09T11:20:45.424Z,32.90
2018-08-09T11:25:49.168Z,33.70
2018-08-09T11:30:53.690Z,34.50
2018-08-09T11:35:57.468Z,35.10
2018-08-09T11:41:01.191Z,35.40
2018-08-09T11:46:04.991Z,36.30
2018-08-09T11:51:08.739Z,37.00
2018-08-09T11:56:12.784Z,37.70
2018-08-09T12:01:16.570Z,38.30
2018-08-09T12:06:20.417Z,39.00
2018-08-09T12:11:25.056Z,38.10
2018-08-09T12:16:28.856Z,37.00
2018-08-09T12:21:32.644Z,36.50
2018-08-09T12:26:36.700Z,37.40
2018-08-09T12:31:40.461Z,38.70
2018-08-09T12:36:44.709Z,40.10
2018-08-09T12:41:48.471Z,41.90
2018-08-09T12:46:52.268Z,44.30
2018-08-09T12:51:56.621Z,44.00
2018-08-09T12:57:01.218Z,44.50
2018-08-09T13:02:05.056Z,43.80
2018-08-09T13:07:08.867Z,41.90
2018-08-09T13:12:12.607Z,41.70
2018-08-09T13:17:16.611Z,40.20
2018-08-09T13:22:20.508Z,39.40
2018-08-09T13:27:24.482Z,38.90
2018-08-09T13:32:28.331Z,40.00
2018-08-09T13:37:32.299Z,40.50
2018-08-09T13:42:36.385Z,40.60
2018-08-09T13:47:40.557Z,41.50
2018-08-09T13:52:44.745Z,42.90
2018-08-09T13:57:48.577Z,44.20
2018-08-09T14:02:52.677Z,43.70
2018-08-09T14:07:56.621Z,41.60
2018-08-09T14:13:00.488Z,38.60
2018-08-09T14:18:04.343Z,36.40
2018-08-09T14:23:08.310Z,34.90
2018-08-09T14:28:12.087Z,34.00
2018-08-09T14:33:15.844Z,33.30
2018-08-09T14:38:19.566Z,32.70
2018-08-09T14:43:23.420Z,32.30
2018-08-09T14:48:27.296Z,32.00
2018-08-09T14:53:30.987Z,31.10
2018-08-09T14:58:34.800Z,25.80
2018-08-09T15:03:38.495Z,22.20
2018-08-09T15:08:42.219Z,20.90
2018-08-09T15:13:45.913Z,20.50
2018-08-09T15:18:49.706Z,20.20
2018-08-09T15:23:53.408Z,20.10
2018-08-09T15:28:57.163Z,19.90
2018-08-09T15:34:00.861Z,19.90
2018-08-09T15:39:08.970Z,19.70
2018-08-09T15:44:13.786Z,19.60
2018-08-09T15:49:17.484Z,19.50
2018-08-09T15:54:21.293Z,19.50
2018-08-09T15:59:25.004Z,19.50
2018-08-09T16:04:28.719Z,19.70
2018-08-09T16:09:32.407Z,19.80
2018-08-09T16:14:36.327Z,19.90
2018-08-09T16:19:40.089Z,20.00
2018-08-09T16:24:43.972Z,20.10
2018-08-09T16:29:47.787Z,20.40
2018-08-09T16:42:16.085Z,22.40
2018-08-09T16:47:19.907Z,25.10
2018-08-09T16:52:23.753Z,25.60
2018-08-09T16:57:27.491Z,25.20
2018-08-09T17:02:31.350Z,24.90
2018-08-09T17:07:35.137Z,24.70
2018-08-09T17:12:39.233Z,24.90
2018-08-09T17:17:43.084Z,24.70
2018-08-09T17:30:12.273Z,24.10
2018-08-09T17:35:17.093Z,23.60
2018-08-09T17:40:22.811Z,23.50
2018-08-09T17:45:29.158Z,23.40
2018-08-09T17:50:32.948Z,23.30
2018-08-09T17:55:36.788Z,23.20
2018-08-09T18:00:40.664Z,23.20
2018-08-09T18:05:45.077Z,23.10
2018-08-09T18:10:48.818Z,23.00
2018-08-09T18:15:52.735Z,23.00
2018-08-09T18:20:56.509Z,22.90
2018-08-09T18:26:00.292Z,22.90
2018-08-09T18:31:04.122Z,23.00
2018-08-09T18:36:08.282Z,23.10
2018-08-09T18:41:12.062Z,23.10
2018-08-09T18:46:15.900Z,23.10
2018-08-09T18:51:20.338Z,23.10
2018-08-09T18:56:24.105Z,23.00
2018-08-09T19:01:27.889Z,22.90
2018-08-09T19:06:31.629Z,22.80
2018-08-09T19:11:35.436Z,22.70
2018-08-09T19:16:39.274Z,22.60
2018-08-09T19:21:43.103Z,22.50
2018-08-09T19:26:46.902Z,22.40
2018-08-09T19:31:50.671Z,22.40
2018-08-09T19:36:54.479Z,22.30
2018-08-09T19:41:58.254Z,22.30
2018-08-09T19:47:02.051Z,22.30
2018-08-09T19:52:05.952Z,22.30
2018-08-09T19:57:09.787Z,22.20
2018-08-09T20:02:13.573Z,22.20
2018-08-09T20:07:17.371Z,22.20
2018-08-09T20:12:21.112Z,22.10
2018-08-09T20:17:24.896Z,22.10
2018-08-09T20:22:29.280Z,22.10
2018-08-09T20:27:33.342Z,22.10
2018-08-09T20:32:37.075Z,22.20
2018-08-09T20:37:41.339Z,22.30
2018-08-09T20:42:45.887Z,22.20
2018-08-09T20:47:49.821Z,22.30
2018-08-09T20:52:53.678Z,22.20
2018-08-09T20:57:57.711Z,21.90
2018-08-09T21:03:02.137Z,21.60
2018-08-09T21:08:06.295Z,21.30
2018-08-09T21:13:10.066Z,21.10
2018-08-09T21:18:13.865Z,20.90
2018-08-09T21:23:17.684Z,20.70
2018-08-09T21:28:21.456Z,20.50
2018-08-09T21:33:25.803Z,20.40
2018-08-09T21:38:29.611Z,20.40
2018-08-09T21:43:33.762Z,20.40
2018-08-09T21:48:37.591Z,20.40
2018-08-09T21:53:41.422Z,20.40
2018-08-09T21:58:45.168Z,20.40
2018-08-09T22:03:48.885Z,20.30
2018-08-09T22:08:57.920Z,20.20
2018-08-09T22:14:06.956Z,20.10
2018-08-09T22:19:16.041Z,20.00
2018-08-09T22:24:19.865Z,19.90
2018-08-09T22:29:23.680Z,19.80
2018-08-09T22:34:27.449Z,19.70
2018-08-09T22:39:31.233Z,19.70
2018-08-09T22:44:35.093Z,19.70
2018-08-09T22:49:38.787Z,19.70
2018-08-09T22:54:42.607Z,19.70
2018-08-09T22:59:46.311Z,19.80
2018-08-09T23:04:50.114Z,19.80
2018-08-09T23:09:53.807Z,19.80
2018-08-09T23:14:57.658Z,19.80
2018-08-09T23:20:01.545Z,19.70
2018-08-09T23:25:10.223Z,19.40
2018-08-09T23:30:14.129Z,19.20
2018-08-09T23:35:17.904Z,19.00
2018-08-09T23:40:21.721Z,18.70
2018-08-09T23:45:25.493Z,18.30
2018-08-09T23:50:29.258Z,18.00
2018-08-09T23:55:33.061Z,17.80
